createdAt,value
2017-09-11T00:00:07.403Z,14.47
2017-09-11T00:01:07.988Z,14.48
2017-09-11T00:02:08.567Z,14.40
2017-09-11T00:03:09.147Z,14.45
2017-09-11T00:04:09.719Z,14.35
2017-09-11T00:05:10.293Z,14.50
2017-09-11T00:06:10.866Z,14.45
2017-09-11T00:07:11.439Z,14.51
2017-09-11T00:08:12.014Z,14.45
2017-09-11T00:09:12.587Z,14.43
2017-09-11T00:10:13.162Z,14.53
2017-09-11T00:11:13.737Z,14.41
2017-09-11T00:12:14.311Z,14.45
2017-09-11T00:13:14.883Z,14.51
2017-09-11T00:14:15.468Z,14.51
2017-09-11T00:15:16.044Z,14.50
2017-09-11T00:16:16.628Z,14.50
2017-09-11T00:17:17.201Z,14.47
2017-09-11T00:18:17.775Z,14.51
2017-09-11T00:19:18.350Z,14.53
2017-09-11T00:20:18.925Z,14.50
2017-09-11T00:21:19.496Z,14.54
2017-09-11T00:22:20.073Z,14.51
2017-09-11T00:23:20.651Z,14.48
2017-09-11T00:24:21.218Z,14.58
2017-09-11T00:25:21.792Z,14.51
2017-09-11T00:26:22.369Z,14.60
2017-09-11T00:27:22.939Z,14.58
2017-09-11T00:28:23.512Z,14.54
2017-09-11T00:29:24.086Z,14.51
2017-09-11T00:30:24.658Z,14.55
2017-09-11T00:31:25.234Z,14.55
2017-09-11T00:32:25.809Z,14.51
2017-09-11T00:33:26.384Z,14.54
2017-09-11T00:34:26.968Z,14.58
2017-09-11T00:35:27.544Z,14.58
2017-09-11T00:36:28.118Z,14.55
2017-09-11T00:37:28.692Z,14.45
2017-09-11T00:38:29.268Z,14.53
2017-09-11T00:39:29.841Z,14.58
2017-09-11T00:40:30.415Z,14.59
2017-09-11T00:41:30.989Z,14.55
2017-09-11T00:42:31.563Z,14.59
2017-09-11T00:43:32.135Z,14.59
2017-09-11T00:44:32.710Z,14.54
2017-09-11T00:45:33.283Z,14.59
2017-09-11T00:46:33.858Z,14.59
2017-09-11T00:47:34.442Z,14.65
2017-09-11T00:48:35.017Z,14.63
2017-09-11T00:49:35.590Z,14.63
2017-09-11T00:50:36.162Z,14.62
2017-09-11T00:51:36.737Z,14.60
2017-09-11T00:52:37.308Z,14.65
2017-09-11T00:53:37.892Z,14.59
2017-09-11T00:54:38.466Z,14.48
2017-09-11T00:55:39.039Z,14.51
2017-09-11T00:56:39.612Z,14.59
2017-09-11T00:57:40.186Z,14.43
2017-09-11T00:58:40.770Z,14.54
2017-09-11T00:59:41.345Z,14.45
2017-09-11T01:00:41.919Z,14.45
2017-09-11T01:01:42.493Z,14.40
2017-09-11T01:02:43.066Z,14.45
2017-09-11T01:03:43.648Z,14.51
2017-09-11T01:04:44.224Z,14.41
2017-09-11T01:05:44.797Z,14.41
2017-09-11T01:06:45.372Z,14.45
2017-09-11T01:07:45.945Z,14.54
2017-09-11T01:08:46.518Z,14.45
2017-09-11T01:09:47.090Z,14.35
2017-09-11T01:10:47.676Z,14.43
2017-09-11T01:11:48.251Z,14.33
2017-09-11T01:12:48.824Z,14.36
2017-09-11T01:13:49.400Z,14.33
2017-09-11T01:14:49.978Z,14.26
2017-09-11T01:15:50.546Z,14.30
2017-09-11T01:16:51.122Z,14.29
2017-09-11T01:17:51.692Z,14.35
2017-09-11T01:18:52.266Z,14.29
2017-09-11T01:19:52.839Z,14.25
2017-09-11T01:20:53.411Z,14.22
2017-09-11T01:21:53.987Z,14.22
2017-09-11T01:22:54.561Z,14.29
2017-09-11T01:23:55.136Z,14.17
2017-09-11T01:24:55.710Z,14.26
2017-09-11T01:25:56.283Z,14.25
2017-09-11T01:26:56.869Z,14.23
2017-09-11T01:27:57.444Z,14.14
2017-09-11T01:28:58.019Z,14.25
2017-09-11T01:29:58.594Z,14.15
2017-09-11T01:30:59.172Z,14.17
2017-09-11T01:31:59.740Z,14.20
2017-09-11T01:33:00.315Z,14.20
2017-09-11T01:34:00.897Z,14.18
2017-09-11T01:35:01.473Z,14.20
2017-09-11T01:36:02.046Z,14.15
2017-09-11T01:37:02.620Z,14.28
2017-09-11T01:38:03.193Z,14.18
2017-09-11T01:39:03.766Z,14.22
2017-09-11T01:40:04.340Z,14.11
2017-09-11T01:41:04.913Z,14.11
2017-09-11T01:42:05.485Z,14.22
2017-09-11T01:43:06.058Z,14.12
2017-09-11T01:44:06.630Z,14.20
2017-09-11T01:45:07.205Z,14.14
2017-09-11T01:46:07.789Z,14.20
2017-09-11T01:47:08.362Z,14.23
2017-09-11T01:48:08.936Z,14.20
2017-09-11T01:49:09.520Z,14.12
2017-09-11T01:50:10.094Z,14.22
2017-09-11T01:51:10.670Z,14.15
2017-09-11T01:52:11.241Z,14.14
2017-09-11T01:53:11.814Z,14.23
2017-09-11T01:54:12.388Z,14.08
2017-09-11T01:55:12.959Z,14.17
2017-09-11T01:56:13.533Z,14.30
2017-09-11T01:57:14.118Z,14.17
2017-09-11T01:58:14.693Z,14.15
2017-09-11T01:59:15.269Z,14.26
2017-09-11T02:00:15.850Z,14.28
2017-09-11T02:01:16.425Z,14.17
2017-09-11T02:02:17.005Z,14.17
2017-09-11T02:03:17.573Z,14.26
2017-09-11T02:04:18.160Z,14.23
2017-09-11T02:05:18.737Z,14.17
2017-09-11T02:06:19.306Z,14.18
2017-09-11T02:07:19.890Z,14.18
2017-09-11T02:08:20.464Z,14.17
2017-09-11T02:09:21.048Z,14.18
2017-09-11T02:10:21.621Z,14.18
2017-09-11T02:11:22.194Z,14.32
2017-09-11T02:12:22.770Z,14.20
2017-09-11T02:13:23.338Z,14.15
2017-09-11T02:14:23.912Z,14.32
2017-09-11T02:15:24.486Z,14.22
2017-09-11T02:16:25.058Z,14.22
2017-09-11T02:17:25.631Z,14.20
2017-09-11T02:18:26.216Z,14.29
2017-09-11T02:19:26.788Z,14.20
2017-09-11T02:20:27.362Z,14.25
2017-09-11T02:21:27.935Z,14.28
2017-09-11T02:22:28.510Z,14.20
2017-09-11T02:23:29.080Z,14.20
2017-09-11T02:24:29.654Z,14.18
2017-09-11T02:25:30.227Z,14.20
2017-09-11T02:26:30.802Z,14.28
2017-09-11T02:27:31.385Z,14.20
2017-09-11T02:28:31.958Z,14.18
2017-09-11T02:29:32.531Z,14.20
2017-09-11T02:30:33.108Z,14.17
2017-09-11T02:31:33.689Z,14.30
2017-09-11T02:32:34.263Z,14.20
2017-09-11T02:33:34.835Z,14.26
2017-09-11T02:34:35.422Z,14.20
2017-09-11T02:35:35.996Z,14.20
2017-09-11T02:36:36.579Z,14.23
2017-09-11T02:37:37.152Z,14.26
2017-09-11T02:38:37.725Z,14.23
2017-09-11T02:39:38.299Z,14.25
2017-09-11T02:40:38.875Z,14.10
2017-09-11T02:41:39.448Z,14.12
2017-09-11T02:42:40.024Z,14.05
2017-09-11T02:43:40.597Z,14.15
2017-09-11T02:44:41.171Z,14.15
2017-09-11T02:45:41.743Z,14.07
2017-09-11T02:46:42.328Z,14.14
2017-09-11T02:47:42.890Z,13.96
2017-09-11T02:48:43.463Z,14.17
2017-09-11T02:49:44.036Z,13.97
2017-09-11T02:50:44.610Z,14.07
2017-09-11T02:51:45.185Z,14.00
2017-09-11T02:52:45.761Z,14.04
2017-09-11T02:53:46.335Z,14.04
2017-09-11T02:54:46.908Z,13.99
2017-09-11T02:55:47.482Z,14.10
2017-09-11T02:56:48.055Z,13.99
2017-09-11T02:57:48.628Z,13.90
2017-09-11T02:58:49.201Z,13.93
2017-09-11T02:59:49.774Z,13.96
2017-09-11T03:00:50.347Z,14.04
2017-09-11T03:01:50.920Z,14.03
2017-09-11T03:02:51.493Z,13.92
2017-09-11T03:03:52.067Z,13.95
2017-09-11T03:04:52.646Z,13.95
2017-09-11T03:05:53.216Z,13.90
2017-09-11T03:06:53.791Z,13.89
2017-09-11T03:07:54.377Z,13.86
2017-09-11T03:08:54.951Z,13.77
2017-09-11T03:09:55.526Z,13.67
2017-09-11T03:10:56.099Z,13.74
2017-09-11T03:11:56.674Z,13.75
2017-09-11T03:12:57.247Z,13.78
2017-09-11T03:13:57.822Z,13.65
2017-09-11T03:14:58.395Z,13.72
2017-09-11T03:15:58.968Z,13.67
2017-09-11T03:16:59.542Z,13.70
2017-09-11T03:18:00.126Z,13.72
2017-09-11T03:19:00.700Z,13.75
2017-09-11T03:20:01.273Z,13.79
2017-09-11T03:21:01.846Z,13.74
2017-09-11T03:22:02.419Z,13.81
2017-09-11T03:23:03.004Z,13.75
2017-09-11T03:24:03.578Z,13.71
2017-09-11T03:25:04.164Z,13.75
2017-09-11T03:26:04.737Z,13.78
2017-09-11T03:27:05.313Z,13.77
2017-09-11T03:28:05.886Z,13.79
2017-09-11T03:29:06.460Z,13.75
2017-09-11T03:30:07.034Z,13.75
2017-09-11T03:31:07.605Z,13.78
2017-09-11T03:32:08.179Z,13.77
2017-09-11T03:33:08.763Z,13.86
2017-09-11T03:34:09.338Z,13.79
2017-09-11T03:35:09.911Z,13.81
2017-09-11T03:36:10.485Z,13.89
2017-09-11T03:37:11.059Z,13.83
2017-09-11T03:38:11.634Z,13.79
2017-09-11T03:39:12.204Z,13.83
2017-09-11T03:40:12.776Z,13.79
2017-09-11T03:41:13.349Z,13.87
2017-09-11T03:42:13.923Z,13.86
2017-09-11T03:43:14.495Z,13.97
2017-09-11T03:44:15.070Z,13.90
2017-09-11T03:45:15.644Z,13.95
2017-09-11T03:46:16.219Z,13.90
2017-09-11T03:47:16.793Z,14.00
2017-09-11T03:48:17.380Z,13.93
2017-09-11T03:49:17.953Z,13.95
2017-09-11T03:50:18.537Z,13.97
2017-09-11T03:51:19.120Z,13.96
2017-09-11T03:52:19.694Z,14.00
2017-09-11T03:53:20.269Z,13.96
2017-09-11T03:54:20.841Z,14.03
2017-09-11T03:55:21.416Z,13.95
2017-09-11T03:56:21.988Z,13.99
2017-09-11T03:57:22.562Z,13.99
2017-09-11T03:58:23.135Z,13.97
2017-09-11T03:59:23.708Z,14.07
2017-09-11T04:00:24.281Z,14.07
2017-09-11T04:01:24.855Z,13.97
2017-09-11T04:02:25.431Z,14.00
2017-09-11T04:03:26.005Z,14.03
2017-09-11T04:04:26.588Z,13.96
2017-09-11T04:05:27.173Z,14.12
2017-09-11T04:06:27.746Z,14.07
2017-09-11T04:07:28.320Z,13.99
2017-09-11T04:08:28.893Z,13.96
2017-09-11T04:09:29.466Z,13.97
2017-09-11T04:10:30.039Z,13.99
2017-09-11T04:11:30.612Z,14.05
2017-09-11T04:12:31.185Z,13.96
2017-09-11T04:13:31.759Z,13.97
2017-09-11T04:14:32.345Z,13.99
2017-09-11T04:15:32.918Z,13.90
2017-09-11T04:16:33.491Z,13.99
2017-09-11T04:17:34.064Z,13.96
2017-09-11T04:18:34.636Z,13.99
2017-09-11T04:19:35.210Z,13.93
2017-09-11T04:20:35.784Z,14.04
2017-09-11T04:21:36.359Z,13.96
2017-09-11T04:22:36.933Z,14.00
2017-09-11T04:23:37.516Z,13.95
2017-09-11T04:24:38.089Z,13.90
2017-09-11T04:25:38.670Z,13.93
2017-09-11T04:26:39.247Z,13.99
2017-09-11T04:27:39.827Z,13.93
2017-09-11T04:28:40.393Z,14.00
2017-09-11T04:29:40.966Z,14.03
2017-09-11T04:30:41.539Z,13.99
2017-09-11T04:31:42.111Z,13.99
2017-09-11T04:32:42.685Z,13.97
2017-09-11T04:33:43.269Z,13.93
2017-09-11T04:34:43.841Z,14.03
2017-09-11T04:35:44.416Z,14.00
2017-09-11T04:36:44.989Z,14.00
2017-09-11T04:37:45.564Z,14.00
2017-09-11T04:38:46.135Z,13.97
2017-09-11T04:39:46.707Z,14.04
2017-09-11T04:40:47.280Z,14.05
2017-09-11T04:41:47.864Z,14.04
2017-09-11T04:42:48.438Z,14.04
2017-09-11T04:43:49.010Z,14.00
2017-09-11T04:44:49.587Z,14.05
2017-09-11T04:45:50.167Z,14.08
2017-09-11T04:46:50.751Z,14.04
2017-09-11T04:47:51.324Z,14.07
2017-09-11T04:48:51.896Z,14.10
2017-09-11T04:49:52.472Z,13.97
2017-09-11T04:50:53.046Z,14.11
2017-09-11T04:51:53.620Z,13.97
2017-09-11T04:52:54.195Z,14.03
2017-09-11T04:53:54.767Z,14.08
2017-09-11T04:54:55.341Z,14.04
2017-09-11T04:55:55.914Z,14.11
2017-09-11T04:56:56.487Z,14.08
2017-09-11T04:57:57.059Z,14.11
2017-09-11T04:58:57.633Z,14.03
2017-09-11T04:59:58.216Z,14.11
2017-09-11T05:00:58.778Z,14.08
2017-09-11T05:01:59.350Z,14.04
2017-09-11T05:02:59.925Z,14.15
2017-09-11T05:04:00.500Z,14.14
2017-09-11T05:05:01.074Z,13.96
2017-09-11T05:06:01.651Z,14.11
2017-09-11T05:07:02.237Z,14.03
2017-09-11T05:08:02.822Z,14.05
2017-09-11T05:09:03.397Z,14.07
2017-09-11T05:10:03.972Z,13.95
2017-09-11T05:11:04.546Z,13.95
2017-09-11T05:12:05.122Z,14.00
2017-09-11T05:13:05.706Z,14.00
2017-09-11T05:14:06.280Z,14.05
2017-09-11T05:15:06.866Z,14.00
2017-09-11T05:16:07.439Z,14.05
2017-09-11T05:17:08.017Z,14.07
2017-09-11T05:18:08.599Z,13.96
2017-09-11T05:19:09.173Z,14.05
2017-09-11T05:20:09.747Z,14.04
2017-09-11T05:21:10.321Z,14.05
2017-09-11T05:22:10.898Z,14.11
2017-09-11T05:23:11.481Z,14.04
2017-09-11T05:24:12.054Z,14.11
2017-09-11T05:25:12.629Z,14.07
2017-09-11T05:26:13.203Z,14.05
2017-09-11T05:27:13.777Z,14.07
2017-09-11T05:28:14.354Z,14.12
2017-09-11T05:29:14.929Z,14.04
2017-09-11T05:30:15.512Z,13.97
2017-09-11T05:31:16.079Z,13.99
2017-09-11T05:32:16.652Z,14.05
2017-09-11T05:33:17.238Z,13.95
2017-09-11T05:34:17.812Z,14.04
2017-09-11T05:35:18.398Z,14.15
2017-09-11T05:36:18.973Z,14.10
2017-09-11T05:37:19.547Z,13.92
2017-09-11T05:38:20.122Z,14.05
2017-09-11T05:39:20.697Z,13.95
2017-09-11T05:40:21.271Z,14.03
2017-09-11T05:41:21.846Z,14.11
2017-09-11T05:42:22.422Z,14.04
2017-09-11T05:43:22.997Z,14.11
2017-09-11T05:44:23.572Z,14.03
2017-09-11T05:45:24.150Z,14.00
2017-09-11T05:46:24.723Z,14.05
2017-09-11T05:47:25.308Z,14.08
2017-09-11T05:48:25.884Z,13.96
2017-09-11T05:49:26.459Z,14.17
2017-09-11T05:50:27.035Z,14.10
2017-09-11T05:51:27.618Z,14.08
2017-09-11T05:52:28.192Z,14.07
2017-09-11T05:53:28.768Z,14.23
2017-09-11T05:54:29.342Z,14.14
2017-09-11T05:55:29.915Z,14.18
2017-09-11T05:56:30.490Z,14.18
2017-09-11T05:57:31.065Z,14.17
2017-09-11T05:58:31.651Z,14.15
2017-09-11T05:59:32.224Z,14.30
2017-09-11T06:00:32.799Z,14.17
2017-09-11T06:01:33.375Z,14.15
2017-09-11T06:02:33.951Z,14.26
2017-09-11T06:03:34.528Z,14.29
2017-09-11T06:04:35.101Z,14.20
2017-09-11T06:05:35.676Z,14.15
2017-09-11T06:06:36.250Z,14.25
2017-09-11T06:07:36.826Z,14.18
2017-09-11T06:08:37.404Z,14.26
2017-09-11T06:09:37.980Z,14.23
2017-09-11T06:10:38.556Z,14.25
2017-09-11T06:11:39.132Z,14.20
2017-09-11T06:12:39.717Z,14.30
2017-09-11T06:13:40.294Z,14.32
2017-09-11T06:14:40.870Z,14.33
2017-09-11T06:15:41.445Z,14.32
2017-09-11T06:16:42.022Z,14.33
2017-09-11T06:17:42.600Z,14.33
2017-09-11T06:18:43.186Z,14.37
2017-09-11T06:19:43.762Z,14.44
2017-09-11T06:20:44.338Z,14.43
2017-09-11T06:21:44.915Z,14.47
2017-09-11T06:22:45.490Z,14.35
2017-09-11T06:23:46.067Z,14.41
2017-09-11T06:24:46.644Z,14.44
2017-09-11T06:25:47.218Z,14.37
2017-09-11T06:26:47.795Z,14.35
2017-09-11T06:27:48.371Z,14.33
2017-09-11T06:28:48.946Z,14.44
2017-09-11T06:29:49.533Z,14.48
2017-09-11T06:30:50.109Z,14.55
2017-09-11T06:31:50.687Z,14.53
2017-09-11T06:32:51.273Z,14.58
2017-09-11T06:33:51.849Z,14.48
2017-09-11T06:34:52.425Z,14.59
2017-09-11T06:35:53.002Z,14.60
2017-09-11T06:36:53.579Z,14.65
2017-09-11T06:37:54.155Z,14.68
2017-09-11T06:38:54.731Z,14.68
2017-09-11T06:39:55.309Z,14.72
2017-09-11T06:40:55.895Z,14.66
2017-09-11T06:41:56.473Z,14.58
2017-09-11T06:42:57.052Z,14.60
2017-09-11T06:43:57.640Z,14.70
2017-09-11T06:44:58.218Z,14.60
2017-09-11T06:45:58.794Z,14.54
2017-09-11T06:46:59.371Z,14.73
2017-09-11T06:47:59.948Z,14.68
2017-09-11T06:49:00.525Z,14.69
2017-09-11T06:50:01.104Z,14.69
2017-09-11T06:51:01.680Z,14.73
2017-09-11T06:52:02.257Z,14.73
2017-09-11T06:53:02.836Z,14.78
2017-09-11T06:54:03.412Z,14.79
2017-09-11T06:55:03.989Z,14.81
2017-09-11T06:56:04.568Z,14.69
2017-09-11T06:57:05.143Z,14.72
2017-09-11T06:58:05.722Z,14.79
2017-09-11T06:59:06.302Z,14.72
2017-09-11T07:00:06.875Z,14.81
2017-09-11T07:01:07.451Z,14.77
2017-09-11T07:02:08.028Z,14.78
2017-09-11T07:03:08.607Z,14.77
2017-09-11T07:04:09.184Z,14.69
2017-09-11T07:05:09.761Z,14.69
2017-09-11T07:06:10.340Z,14.77
2017-09-11T07:07:10.917Z,14.77
2017-09-11T07:08:11.494Z,14.77
2017-09-11T07:09:12.071Z,14.84
2017-09-11T07:10:12.649Z,14.73
2017-09-11T07:11:13.227Z,14.84
2017-09-11T07:12:13.804Z,14.84
2017-09-11T07:13:14.379Z,14.88
2017-09-11T07:14:14.956Z,14.96
2017-09-11T07:15:15.534Z,14.86
2017-09-11T07:16:16.112Z,14.85
2017-09-11T07:17:16.689Z,14.85
2017-09-11T07:18:17.265Z,14.86
2017-09-11T07:19:17.844Z,14.96
2017-09-11T07:20:18.421Z,15.10
2017-09-11T07:21:18.999Z,15.19
2017-09-11T07:22:19.575Z,15.36
2017-09-11T07:23:20.154Z,15.28
2017-09-11T07:24:20.731Z,15.33
2017-09-11T07:25:21.307Z,15.43
2017-09-11T07:26:21.884Z,15.47
2017-09-11T07:27:22.461Z,15.46
2017-09-11T07:28:23.039Z,15.52
2017-09-11T07:29:23.617Z,15.47
2017-09-11T07:30:24.194Z,15.65
2017-09-11T07:31:24.770Z,15.70
2017-09-11T07:32:25.357Z,16.00
2017-09-11T07:33:25.926Z,15.91
2017-09-11T07:34:26.503Z,16.01
2017-09-11T07:35:27.081Z,15.82
2017-09-11T07:36:27.659Z,15.72
2017-09-11T07:37:28.238Z,15.73
2017-09-11T07:38:28.815Z,15.67
2017-09-11T07:39:29.391Z,15.62
2017-09-11T07:40:29.971Z,15.62
2017-09-11T07:41:30.561Z,15.55
2017-09-11T07:42:31.136Z,15.64
2017-09-11T07:43:31.714Z,15.77
2017-09-11T07:44:32.291Z,15.80
2017-09-11T07:45:32.868Z,15.94
2017-09-11T07:46:33.445Z,16.02
2017-09-11T07:47:34.023Z,16.26
2017-09-11T07:48:34.602Z,16.24
2017-09-11T07:49:35.179Z,16.09
2017-09-11T07:50:35.756Z,16.04
2017-09-11T07:51:36.344Z,16.28
2017-09-11T07:52:36.932Z,16.15
2017-09-11T07:53:37.509Z,16.04
2017-09-11T07:54:38.086Z,15.97
2017-09-11T07:55:38.663Z,15.98
2017-09-11T07:56:39.240Z,15.98
2017-09-11T07:57:39.820Z,15.92
2017-09-11T07:58:40.397Z,15.84
2017-09-11T07:59:40.974Z,15.94
2017-09-11T08:00:41.553Z,15.98
2017-09-11T08:01:42.140Z,15.84
2017-09-11T08:02:42.728Z,16.01
2017-09-11T08:03:43.305Z,15.92
2017-09-11T08:04:43.894Z,16.05
2017-09-11T08:05:44.470Z,16.09
2017-09-11T08:06:45.049Z,16.00
2017-09-11T08:07:45.628Z,16.15
2017-09-11T08:08:46.205Z,16.16
2017-09-11T08:09:46.783Z,16.16
2017-09-11T08:10:47.359Z,16.04
2017-09-11T08:11:47.937Z,15.94
2017-09-11T08:12:48.526Z,15.95
2017-09-11T08:13:49.106Z,16.09
2017-09-11T08:14:49.694Z,16.13
2017-09-11T08:15:50.271Z,16.21
2017-09-11T08:16:50.851Z,16.24
2017-09-11T08:17:51.428Z,16.41
2017-09-11T08:18:52.005Z,16.41
2017-09-11T08:19:52.585Z,16.38
2017-09-11T08:20:53.162Z,16.26
2017-09-11T08:21:53.741Z,16.24
2017-09-11T08:22:54.317Z,16.35
2017-09-11T08:23:54.898Z,16.41
2017-09-11T08:24:55.475Z,16.33
2017-09-11T08:25:56.052Z,16.38
2017-09-11T08:26:56.629Z,16.38
2017-09-11T08:27:57.206Z,16.49
2017-09-11T08:28:57.784Z,16.49
2017-09-11T08:29:58.364Z,16.50
2017-09-11T08:30:58.941Z,16.78
2017-09-11T08:31:59.518Z,16.93
2017-09-11T08:33:00.098Z,17.04
2017-09-11T08:34:00.675Z,16.90
2017-09-11T08:35:01.254Z,16.97
2017-09-11T08:36:01.831Z,16.65
2017-09-11T08:37:02.410Z,16.56
2017-09-11T08:38:02.989Z,16.76
2017-09-11T08:39:03.567Z,16.64
2017-09-11T08:40:04.145Z,16.46
2017-09-11T08:41:04.724Z,16.61
2017-09-11T08:42:05.303Z,16.58
2017-09-11T08:43:05.888Z,16.54
2017-09-11T08:44:06.459Z,16.64
2017-09-11T08:45:07.048Z,16.39
2017-09-11T08:46:07.636Z,16.33
2017-09-11T08:47:08.216Z,16.36
2017-09-11T08:48:08.793Z,16.20
2017-09-11T08:49:09.372Z,16.04
2017-09-11T08:50:09.950Z,15.97
2017-09-11T08:51:10.529Z,16.01
2017-09-11T08:52:11.112Z,15.90
2017-09-11T08:53:11.683Z,16.20
2017-09-11T08:54:12.263Z,16.02
2017-09-11T08:55:12.842Z,15.97
2017-09-11T08:56:13.418Z,16.04
2017-09-11T08:57:13.996Z,15.94
2017-09-11T08:58:14.575Z,15.72
2017-09-11T08:59:15.152Z,15.72
2017-09-11T09:00:15.731Z,15.77
2017-09-11T09:01:16.307Z,15.97
2017-09-11T09:02:16.886Z,15.80
2017-09-11T09:03:17.466Z,15.94
2017-09-11T09:04:18.043Z,15.79
2017-09-11T09:05:18.620Z,15.82
2017-09-11T09:06:19.197Z,15.82
2017-09-11T09:07:19.775Z,15.86
2017-09-11T09:08:20.355Z,16.01
2017-09-11T09:09:20.932Z,16.23
2017-09-11T09:10:21.509Z,16.38
2017-09-11T09:11:22.088Z,16.47
2017-09-11T09:12:22.666Z,16.39
2017-09-11T09:13:23.244Z,16.51
2017-09-11T09:14:23.821Z,16.53
2017-09-11T09:15:24.399Z,16.60
2017-09-11T09:16:24.979Z,16.64
2017-09-11T09:17:25.556Z,16.65
2017-09-11T09:18:26.144Z,16.93
2017-09-11T09:19:26.710Z,16.74
2017-09-11T09:20:27.287Z,16.91
2017-09-11T09:21:27.868Z,16.69
2017-09-11T09:22:28.445Z,16.57
2017-09-11T09:23:29.025Z,16.46
2017-09-11T09:24:29.612Z,16.38
2017-09-11T09:25:30.191Z,16.49
2017-09-11T09:26:30.767Z,16.36
2017-09-11T09:27:31.355Z,16.42
2017-09-11T09:28:31.935Z,16.41
2017-09-11T09:29:32.513Z,16.36
2017-09-11T09:30:33.091Z,16.29
2017-09-11T09:31:33.669Z,16.32
2017-09-11T09:32:34.248Z,16.31
2017-09-11T09:33:34.827Z,16.20
2017-09-11T09:34:35.404Z,16.31
2017-09-11T09:35:35.981Z,16.26
2017-09-11T09:36:36.558Z,16.33
2017-09-11T09:37:37.137Z,16.31
2017-09-11T09:38:37.724Z,16.36
2017-09-11T09:39:38.303Z,16.53
2017-09-11T09:40:38.883Z,16.90
2017-09-11T09:41:39.471Z,16.96
2017-09-11T09:42:40.050Z,17.08
2017-09-11T09:43:40.626Z,17.23
2017-09-11T09:44:41.204Z,17.29
2017-09-11T09:45:41.785Z,17.05
2017-09-11T09:46:42.361Z,17.05
2017-09-11T09:47:42.941Z,17.19
2017-09-11T09:48:43.520Z,17.38
2017-09-11T09:49:44.098Z,17.59
2017-09-11T09:50:44.677Z,17.64
2017-09-11T09:51:45.255Z,17.56
2017-09-11T09:52:45.832Z,17.54
2017-09-11T09:53:46.410Z,17.38
2017-09-11T09:54:46.989Z,17.38
2017-09-11T09:55:47.570Z,17.09
2017-09-11T09:56:48.146Z,16.97
2017-09-11T09:57:48.724Z,16.42
2017-09-11T09:58:49.304Z,16.33
2017-09-11T09:59:49.881Z,16.32
2017-09-11T10:00:50.460Z,16.29
2017-09-11T10:01:51.042Z,16.39
2017-09-11T10:02:51.616Z,16.49
2017-09-11T10:03:52.197Z,16.72
2017-09-11T10:04:52.774Z,16.74
2017-09-11T10:05:53.351Z,16.65
2017-09-11T10:06:53.931Z,16.49
2017-09-11T10:07:54.520Z,16.53
2017-09-11T10:08:55.100Z,16.60
2017-09-11T10:09:55.678Z,16.56
2017-09-11T10:10:56.256Z,16.56
2017-09-11T10:11:56.835Z,16.49
2017-09-11T10:12:57.411Z,16.47
2017-09-11T10:13:57.991Z,16.57
2017-09-11T10:14:58.574Z,16.54
2017-09-11T10:15:59.147Z,16.43
2017-09-11T10:16:59.741Z,16.46
2017-09-11T10:18:00.313Z,16.42
2017-09-11T10:19:00.891Z,16.39
2017-09-11T10:20:01.472Z,16.47
2017-09-11T10:21:02.050Z,16.39
2017-09-11T10:22:02.651Z,16.29
2017-09-11T10:23:03.228Z,16.29
2017-09-11T10:24:03.806Z,16.35
2017-09-11T10:25:04.385Z,16.20
2017-09-11T10:26:04.965Z,16.42
2017-09-11T10:27:05.540Z,16.60
2017-09-11T10:28:06.119Z,16.72
2017-09-11T10:29:06.697Z,16.91
2017-09-11T10:30:07.276Z,16.78
2017-09-11T10:31:07.853Z,16.89
2017-09-11T10:32:08.432Z,16.75
2017-09-11T10:33:09.011Z,17.02
2017-09-11T10:34:09.589Z,16.99
2017-09-11T10:35:10.166Z,17.02
2017-09-11T10:36:10.743Z,17.11
2017-09-11T10:37:11.322Z,17.16
2017-09-11T10:38:11.902Z,17.16
2017-09-11T10:39:12.480Z,17.16
2017-09-11T10:40:13.057Z,17.36
2017-09-11T10:41:13.637Z,17.44
2017-09-11T10:42:14.214Z,17.65
2017-09-11T10:43:14.796Z,17.78
2017-09-11T10:44:15.382Z,17.86
2017-09-11T10:45:15.960Z,17.63
2017-09-11T10:46:16.537Z,17.33
2017-09-11T10:47:17.117Z,17.19
2017-09-11T10:48:17.706Z,17.05
2017-09-11T10:49:18.276Z,17.16
2017-09-11T10:50:18.853Z,17.15
2017-09-11T10:51:19.432Z,17.16
2017-09-11T10:52:20.012Z,17.23
2017-09-11T10:53:20.590Z,17.20
2017-09-11T10:54:21.167Z,17.19
2017-09-11T10:55:21.746Z,17.20
2017-09-11T10:56:22.326Z,17.41
2017-09-11T10:57:22.906Z,17.70
2017-09-11T10:58:23.485Z,17.90
2017-09-11T10:59:24.065Z,18.19
2017-09-11T11:00:24.644Z,17.92
2017-09-11T11:01:25.223Z,17.64
2017-09-11T11:02:25.800Z,17.34
2017-09-11T11:03:26.381Z,17.49
2017-09-11T11:04:26.959Z,17.60
2017-09-11T11:05:27.542Z,17.49
2017-09-11T11:06:28.127Z,17.39
2017-09-11T11:07:28.704Z,17.41
2017-09-11T11:08:29.282Z,17.33
2017-09-11T11:09:29.860Z,17.23
2017-09-11T11:10:30.440Z,17.16
2017-09-11T11:11:31.019Z,17.26
2017-09-11T11:12:31.610Z,17.22
2017-09-11T11:13:32.200Z,17.19
2017-09-11T11:14:32.776Z,17.01
2017-09-11T11:15:33.356Z,17.08
2017-09-11T11:16:33.934Z,17.12
2017-09-11T11:17:34.513Z,17.15
2017-09-11T11:18:35.092Z,17.23
2017-09-11T11:19:35.670Z,17.26
2017-09-11T11:20:36.249Z,17.30
2017-09-11T11:21:36.827Z,17.51
2017-09-11T11:22:37.408Z,17.41
2017-09-11T11:23:37.994Z,17.44
2017-09-11T11:24:38.572Z,17.56
2017-09-11T11:25:39.151Z,17.52
2017-09-11T11:26:39.730Z,17.42
2017-09-11T11:27:40.309Z,17.64
2017-09-11T11:28:40.887Z,17.57
2017-09-11T11:29:41.467Z,17.79
2017-09-11T11:30:42.044Z,18.04
2017-09-11T11:31:42.623Z,18.18
2017-09-11T11:32:43.201Z,18.03
2017-09-11T11:33:43.780Z,17.87
2017-09-11T11:34:44.360Z,18.10
2017-09-11T11:35:44.939Z,18.05
2017-09-11T11:36:45.516Z,18.29
2017-09-11T11:37:46.093Z,18.28
2017-09-11T11:38:46.674Z,18.45
2017-09-11T11:39:47.254Z,18.34
2017-09-11T11:40:47.831Z,18.43
2017-09-11T11:41:48.410Z,18.55
2017-09-11T11:42:48.990Z,18.49
2017-09-11T11:43:49.568Z,18.59
2017-09-11T11:44:50.147Z,18.50
2017-09-11T11:45:50.730Z,18.58
2017-09-11T11:46:51.316Z,18.58
2017-09-11T11:47:51.893Z,18.44
2017-09-11T11:48:52.474Z,18.22
2017-09-11T11:49:53.053Z,18.40
2017-09-11T11:50:53.640Z,18.43
2017-09-11T11:51:54.218Z,18.50
2017-09-11T11:52:54.803Z,18.95
2017-09-11T11:53:55.383Z,18.71
2017-09-11T11:54:55.965Z,18.81
2017-09-11T11:55:56.544Z,18.80
2017-09-11T11:56:57.123Z,19.11
2017-09-11T11:57:57.703Z,18.83
2017-09-11T11:58:58.284Z,18.92
2017-09-11T11:59:58.865Z,19.08
2017-09-11T12:00:59.444Z,19.31
2017-09-11T12:02:00.024Z,19.33
2017-09-11T12:03:00.604Z,19.15
2017-09-11T12:04:01.184Z,19.26
2017-09-11T12:05:01.775Z,18.93
2017-09-11T12:06:02.354Z,18.81
2017-09-11T12:07:02.932Z,18.83
2017-09-11T12:08:03.513Z,18.89
2017-09-11T12:09:04.106Z,19.02
2017-09-11T12:10:04.673Z,18.68
2017-09-11T12:11:05.251Z,18.63
2017-09-11T12:12:05.833Z,18.70
2017-09-11T12:13:06.412Z,18.50
2017-09-11T12:14:06.992Z,18.38
2017-09-11T12:15:07.570Z,18.10
2017-09-11T12:16:08.149Z,18.13
2017-09-11T12:17:08.740Z,18.11
2017-09-11T12:18:09.317Z,18.20
2017-09-11T12:19:09.898Z,18.35
2017-09-11T12:20:10.488Z,18.55
2017-09-11T12:21:11.070Z,18.80
2017-09-11T12:22:11.650Z,18.78
2017-09-11T12:23:12.231Z,18.74
2017-09-11T12:24:12.810Z,18.86
2017-09-11T12:25:13.389Z,18.74
2017-09-11T12:26:13.973Z,18.70
2017-09-11T12:27:14.548Z,18.37
2017-09-11T12:28:15.127Z,18.55
2017-09-11T12:29:15.718Z,18.65
2017-09-11T12:30:16.295Z,18.80
2017-09-11T12:31:16.874Z,18.68
2017-09-11T12:32:17.455Z,18.81
2017-09-11T12:33:18.037Z,18.58
2017-09-11T12:34:18.648Z,18.62
2017-09-11T12:35:19.191Z,18.60
2017-09-11T12:36:19.772Z,18.52
2017-09-11T12:37:20.353Z,19.02
2017-09-11T12:38:20.944Z,18.90
2017-09-11T12:39:21.523Z,18.92
2017-09-11T12:40:22.102Z,18.98
2017-09-11T12:41:22.685Z,19.07
2017-09-11T12:42:23.264Z,18.93
2017-09-11T12:43:23.877Z,18.89
2017-09-11T12:44:24.432Z,18.93
2017-09-11T12:45:25.012Z,18.81
2017-09-11T12:46:25.602Z,18.60
2017-09-11T12:47:26.183Z,18.38
2017-09-11T12:48:26.761Z,18.26
2017-09-11T12:49:27.351Z,18.19
2017-09-11T12:50:27.930Z,18.16
2017-09-11T12:51:28.509Z,18.23
2017-09-11T12:52:29.089Z,18.05
2017-09-11T12:53:29.670Z,18.08
2017-09-11T12:54:30.248Z,18.10
2017-09-11T12:55:30.826Z,18.29
2017-09-11T12:56:31.408Z,18.20
2017-09-11T12:57:31.987Z,18.23
2017-09-11T12:58:32.566Z,18.23
2017-09-11T12:59:33.145Z,18.08